createdAt,value
2023-01-21T00:00:33.704Z,1.38
2023-01-21T00:03:36.191Z,1.92
2023-01-21T00:06:38.960Z,2.20
2023-01-21T00:09:41.619Z,1.30
2023-01-21T00:12:44.195Z,1.83
2023-01-21T00:15:46.751Z,1.35
2023-01-21T00:18:49.197Z,2.25
2023-01-21T00:21:51.814Z,2.75
2023-01-21T00:24:54.277Z,2.05
2023-01-21T00:27:56.729Z,1.40
2023-01-21T00:31:00.896Z,1.45
2023-01-21T00:34:03.287Z,2.08
2023-01-21T00:37:05.824Z,1.07
2023-01-21T00:40:08.883Z,1.70
2023-01-21T00:43:11.281Z,2.90
2023-01-21T00:46:13.670Z,1.77
2023-01-21T00:49:16.073Z,1.55
2023-01-21T00:52:18.512Z,1.30
2023-01-21T00:55:20.829Z,1.45
2023-01-21T00:58:23.328Z,1.80
2023-01-21T01:01:28.007Z,1.38
2023-01-21T01:04:30.648Z,1.40
2023-01-21T01:07:33.021Z,2.83
2023-01-21T01:10:37.529Z,1.30
2023-01-21T01:13:40.579Z,1.48
2023-01-21T01:16:42.922Z,1.20
2023-01-21T01:19:45.769Z,3.42
2023-01-21T01:22:48.293Z,1.55
2023-01-21T01:25:56.523Z,3.53
2023-01-21T01:28:58.893Z,2.83
2023-01-21T01:32:01.348Z,3.50
2023-01-21T01:35:03.852Z,3.60
2023-01-21T01:38:08.806Z,3.93
2023-01-21T01:41:35.026Z,3.65
2023-01-21T01:44:59.186Z,2.53
2023-01-21T01:48:06.290Z,1.73
2023-01-21T01:51:09.624Z,1.80
2023-01-21T01:54:18.162Z,1.48
2023-01-21T01:57:23.914Z,2.78
2023-01-21T02:00:28.423Z,1.60
2023-01-21T02:03:50.704Z,2.03
2023-01-21T02:06:55.325Z,2.00
2023-01-21T02:09:58.336Z,1.40
2023-01-21T02:13:01.413Z,1.10
2023-01-21T02:16:27.860Z,1.85
2023-01-21T02:19:42.447Z,1.58
2023-01-21T02:22:53.057Z,0.80
2023-01-21T02:26:32.141Z,1.20
2023-01-21T02:29:52.563Z,0.90
2023-01-21T02:33:31.920Z,1.07
2023-01-21T02:36:43.500Z,1.55
2023-01-21T02:40:10.527Z,1.75
2023-01-21T02:43:22.009Z,1.33
2023-01-21T02:46:46.197Z,1.33
2023-01-21T02:50:10.707Z,0.80
2023-01-21T02:53:29.094Z,1.50
2023-01-21T02:56:31.527Z,1.90
2023-01-21T02:59:35.313Z,10.43
2023-01-21T03:02:46.496Z,2.60
2023-01-21T03:06:06.628Z,2.23
2023-01-21T03:09:16.987Z,1.42
2023-01-21T03:12:44.911Z,1.85
2023-01-21T03:16:15.040Z,1.83
2023-01-21T03:19:19.614Z,2.28
2023-01-21T03:22:26.318Z,2.40
2023-01-21T03:25:31.906Z,1.95
2023-01-21T03:28:39.852Z,1.45
2023-01-21T03:31:46.530Z,2.03
2023-01-21T03:34:52.931Z,1.92
2023-01-21T03:38:00.592Z,1.53
2023-01-21T03:41:13.417Z,2.25
2023-01-21T03:44:16.194Z,2.50
2023-01-21T03:47:28.683Z,2.23
2023-01-21T03:51:01.425Z,3.17
2023-01-21T03:54:03.796Z,2.40
2023-01-21T03:57:06.195Z,3.03
2023-01-21T04:00:09.577Z,2.15
2023-01-21T04:03:12.786Z,2.85
2023-01-21T04:06:23.361Z,2.50
2023-01-21T04:09:25.794Z,1.60
2023-01-21T04:12:28.184Z,3.28
2023-01-21T04:15:30.539Z,2.45
2023-01-21T04:18:33.025Z,2.13
2023-01-21T04:21:35.528Z,1.77
2023-01-21T04:24:37.895Z,1.27
2023-01-21T04:27:40.286Z,2.25
2023-01-21T04:30:43.442Z,9.55
2023-01-21T04:33:45.804Z,4.40
2023-01-21T04:36:48.208Z,4.93
2023-01-21T04:39:50.605Z,3.03
2023-01-21T04:42:53.039Z,2.60
2023-01-21T04:45:55.463Z,2.05
2023-01-21T04:48:58.037Z,3.40
2023-01-21T04:52:00.771Z,3.50
2023-01-21T04:55:03.500Z,2.30
2023-01-21T04:58:06.040Z,2.58
2023-01-21T05:01:08.551Z,2.55
2023-01-21T05:04:11.011Z,2.70
2023-01-21T05:07:14.812Z,1.90
2023-01-21T05:10:17.980Z,1.80
2023-01-21T05:13:20.513Z,2.45
2023-01-21T05:16:23.244Z,1.63
2023-01-21T05:19:25.765Z,1.80
2023-01-21T05:22:28.173Z,2.00
2023-01-21T05:25:30.622Z,4.15
2023-01-21T05:28:33.023Z,1.70
2023-01-21T05:31:35.561Z,1.50
2023-01-21T05:34:37.991Z,0.70
2023-01-21T05:37:40.301Z,1.20
2023-01-21T05:40:42.613Z,0.97
2023-01-21T05:43:45.083Z,1.88
2023-01-21T05:46:47.452Z,1.48
2023-01-21T05:49:50.263Z,2.13
2023-01-21T05:52:52.681Z,4.22
2023-01-21T05:55:56.620Z,2.95
2023-01-21T05:58:59.076Z,5.32
2023-01-21T06:02:01.643Z,6.95
2023-01-21T06:05:04.265Z,3.35
2023-01-21T06:08:06.596Z,2.83
2023-01-21T06:11:09.104Z,3.83
2023-01-21T06:14:12.474Z,9.00
2023-01-21T06:17:14.804Z,11.57
2023-01-21T06:20:17.462Z,12.30
2023-01-21T06:23:19.942Z,11.00
2023-01-21T06:26:22.292Z,8.77
2023-01-21T06:29:25.173Z,15.23
2023-01-21T06:32:27.644Z,13.15
2023-01-21T06:35:30.088Z,21.95
2023-01-21T06:38:36.042Z,14.85
2023-01-21T06:41:38.652Z,4.67
2023-01-21T06:44:41.051Z,14.05
2023-01-21T06:47:44.981Z,7.63
2023-01-21T06:50:47.421Z,3.47
2023-01-21T06:53:49.853Z,2.33
2023-01-21T06:56:52.233Z,2.20
2023-01-21T06:59:54.659Z,2.30
2023-01-21T07:02:58.449Z,2.65
2023-01-21T07:06:01.249Z,4.47
2023-01-21T07:09:04.995Z,5.78
2023-01-21T07:12:07.492Z,8.57
2023-01-21T07:15:10.150Z,20.40
2023-01-21T07:18:12.587Z,24.30
2023-01-21T07:21:14.957Z,20.13
2023-01-21T07:24:17.381Z,14.07
2023-01-21T07:27:19.768Z,14.55
2023-01-21T07:30:22.231Z,25.58
2023-01-21T07:33:24.613Z,9.20
2023-01-21T07:36:27.230Z,9.65
2023-01-21T07:39:30.025Z,3.53
2023-01-21T07:42:32.883Z,3.00
2023-01-21T07:45:35.680Z,1.85
2023-01-21T07:48:38.051Z,3.22
2023-01-21T07:51:40.447Z,4.97
2023-01-21T07:54:42.890Z,15.48
2023-01-21T07:57:45.305Z,41.92
2023-01-21T08:00:47.767Z,25.55
2023-01-21T08:03:50.136Z,9.23
2023-01-21T08:06:56.896Z,9.50
2023-01-21T08:09:59.299Z,31.83
2023-01-21T08:13:02.107Z,26.83
2023-01-21T08:16:05.141Z,25.70
2023-01-21T08:19:07.669Z,22.67
2023-01-21T08:22:10.036Z,22.83
2023-01-21T08:25:12.486Z,26.88
2023-01-21T08:28:14.873Z,31.35
2023-01-21T08:31:17.481Z,25.08
2023-01-21T08:34:20.247Z,19.63
2023-01-21T08:37:22.721Z,44.75
2023-01-21T08:40:26.483Z,44.50
2023-01-21T08:43:28.896Z,20.20
2023-01-21T08:46:31.249Z,30.77
2023-01-21T08:49:33.688Z,29.52
2023-01-21T08:52:36.066Z,110.47
2023-01-21T08:55:38.691Z,21.77
2023-01-21T08:58:41.794Z,25.92
2023-01-21T09:01:44.192Z,13.77
2023-01-21T09:04:47.434Z,11.23
2023-01-21T09:07:49.867Z,10.90
2023-01-21T09:11:00.950Z,10.45
2023-01-21T09:14:04.186Z,9.93
2023-01-21T09:17:06.726Z,8.88
2023-01-21T09:20:09.987Z,13.68
2023-01-21T09:23:25.471Z,10.97
2023-01-21T09:26:28.212Z,10.45
2023-01-21T09:29:30.637Z,10.02
2023-01-21T09:32:33.468Z,11.82
2023-01-21T09:35:35.806Z,9.20
2023-01-21T09:38:38.346Z,11.68
2023-01-21T09:41:44.241Z,13.23
2023-01-21T09:44:51.623Z,12.70
2023-01-21T09:47:56.691Z,15.68
2023-01-21T09:51:04.755Z,29.98
2023-01-21T09:54:17.624Z,16.27
2023-01-21T09:57:38.134Z,26.50
2023-01-21T10:00:57.456Z,14.50
2023-01-21T10:04:14.880Z,9.73
2023-01-21T10:07:34.064Z,8.02
2023-01-21T10:10:37.465Z,11.38
2023-01-21T10:14:09.932Z,9.55
2023-01-21T10:17:27.289Z,17.30
2023-01-21T10:20:35.485Z,8.80
2023-01-21T10:23:43.569Z,11.10
2023-01-21T10:26:48.124Z,11.33
2023-01-21T10:29:55.708Z,8.38
2023-01-21T10:32:58.616Z,10.65
2023-01-21T10:36:43.033Z,10.50
2023-01-21T10:40:09.190Z,22.40
2023-01-21T10:43:44.060Z,15.10
2023-01-21T10:46:59.403Z,10.07
2023-01-21T10:50:19.832Z,26.60
2023-01-21T10:53:28.037Z,32.35
2023-01-21T10:56:47.454Z,7.85
2023-01-21T10:59:51.389Z,5.50
2023-01-21T11:02:59.064Z,7.18
2023-01-21T11:06:04.465Z,13.48
2023-01-21T11:09:12.151Z,30.08
2023-01-21T11:12:21.486Z,37.28
2023-01-21T11:15:24.452Z,10.05
2023-01-21T11:18:37.246Z,5.30
2023-01-21T11:21:40.225Z,13.97
2023-01-21T11:24:45.406Z,4.57
2023-01-21T11:27:47.742Z,15.02
2023-01-21T11:30:51.761Z,11.63
2023-01-21T11:33:55.740Z,7.22
2023-01-21T11:37:06.863Z,15.75
2023-01-21T11:40:24.019Z,16.90
2023-01-21T11:43:37.224Z,47.20
2023-01-21T11:46:42.802Z,23.33
2023-01-21T11:49:47.979Z,7.43
2023-01-21T11:53:14.039Z,16.83
2023-01-21T11:56:16.860Z,15.23
2023-01-21T11:59:26.777Z,30.92
2023-01-21T12:02:33.551Z,6.73
2023-01-21T12:05:41.083Z,19.98
2023-01-21T12:08:45.736Z,26.92
2023-01-21T12:12:06.104Z,10.93
2023-01-21T12:15:30.189Z,37.28
2023-01-21T12:18:35.388Z,20.45
2023-01-21T12:21:46.826Z,18.27
2023-01-21T12:25:01.281Z,14.90
2023-01-21T12:28:25.213Z,20.75
2023-01-21T12:31:42.816Z,23.40
2023-01-21T12:34:56.045Z,13.07
2023-01-21T12:38:26.666Z,32.30
2023-01-21T12:41:31.830Z,31.95
2023-01-21T12:44:57.272Z,36.00
2023-01-21T12:48:12.259Z,21.67
2023-01-21T12:51:30.398Z,20.98
2023-01-21T12:54:58.056Z,17.52
2023-01-21T12:58:07.863Z,6.30
2023-01-21T13:01:16.123Z,4.88
2023-01-21T13:04:44.931Z,12.75
2023-01-21T13:08:18.189Z,10.90
2023-01-21T13:11:29.249Z,7.88
2023-01-21T13:14:39.499Z,8.35
2023-01-21T13:17:44.623Z,22.23
2023-01-21T13:20:54.362Z,13.90
2023-01-21T13:23:58.454Z,5.93
2023-01-21T13:27:33.287Z,23.05
2023-01-21T13:30:41.701Z,6.97
2023-01-21T13:34:01.330Z,7.07
2023-01-21T13:37:21.805Z,15.55
2023-01-21T13:40:55.261Z,21.23
2023-01-21T13:44:21.843Z,24.17
2023-01-21T13:47:47.679Z,13.80
2023-01-21T13:51:31.333Z,8.57
2023-01-21T13:55:04.775Z,3.78
2023-01-21T13:58:16.464Z,3.17
2023-01-21T14:01:31.075Z,3.05
2023-01-21T14:04:45.382Z,4.47
2023-01-21T14:08:05.690Z,6.30
2023-01-21T14:11:29.864Z,5.38
2023-01-21T14:14:53.827Z,5.50
2023-01-21T14:18:23.914Z,4.57
2023-01-21T14:21:29.253Z,5.15
2023-01-21T14:25:00.327Z,3.92
2023-01-21T14:28:28.466Z,3.03
2023-01-21T14:31:36.567Z,10.77
2023-01-21T14:35:07.968Z,9.30
2023-01-21T14:38:19.335Z,14.67
2023-01-21T14:41:21.775Z,15.38
2023-01-21T14:44:37.830Z,10.23
2023-01-21T14:47:43.561Z,13.77
2023-01-21T14:50:46.284Z,11.55
2023-01-21T14:53:51.318Z,14.52
2023-01-21T14:56:59.818Z,17.35
2023-01-21T15:00:21.997Z,35.55
2023-01-21T15:03:30.096Z,23.10
2023-01-21T15:06:39.013Z,20.17
2023-01-21T15:09:44.469Z,15.60
2023-01-21T15:12:53.068Z,8.93
2023-01-21T15:16:14.557Z,15.13
2023-01-21T15:19:24.076Z,6.90
2023-01-21T15:22:46.805Z,23.75
2023-01-21T15:26:07.713Z,10.90
2023-01-21T15:29:34.161Z,6.35
2023-01-21T15:32:44.689Z,7.07
2023-01-21T15:35:47.329Z,9.40
2023-01-21T15:38:50.824Z,11.65
2023-01-21T15:42:19.894Z,10.50
2023-01-21T15:45:27.551Z,9.32
2023-01-21T15:48:42.593Z,37.88
2023-01-21T15:51:52.188Z,37.20
2023-01-21T15:55:19.340Z,38.83
2023-01-21T15:58:24.598Z,46.53
2023-01-21T16:01:37.328Z,36.58
2023-01-21T16:04:51.430Z,23.17
2023-01-21T16:08:09.192Z,18.95
2023-01-21T16:11:52.796Z,19.75
2023-01-21T16:14:59.782Z,18.53
2023-01-21T16:18:22.803Z,30.90
2023-01-21T16:21:33.338Z,20.42
2023-01-21T16:24:42.815Z,12.73
2023-01-21T16:27:47.932Z,8.15
2023-01-21T16:30:55.777Z,8.02
2023-01-21T16:33:58.533Z,9.98
2023-01-21T16:37:05.728Z,12.95
2023-01-21T16:40:30.224Z,51.67
2023-01-21T16:43:38.069Z,61.35
2023-01-21T16:46:41.778Z,24.43
2023-01-21T16:49:44.792Z,11.27
2023-01-21T16:52:48.579Z,14.10
2023-01-21T16:55:53.707Z,19.63
2023-01-21T16:58:56.650Z,23.65
2023-01-21T17:01:59.931Z,20.80
2023-01-21T17:05:08.187Z,25.52
2023-01-21T17:08:12.211Z,21.52
2023-01-21T17:11:14.865Z,26.20
2023-01-21T17:14:24.787Z,17.55
2023-01-21T17:17:33.669Z,11.50
2023-01-21T17:20:45.793Z,10.32
2023-01-21T17:23:51.097Z,8.90
2023-01-21T17:27:16.353Z,8.27
2023-01-21T17:30:31.093Z,13.32
2023-01-21T17:33:33.542Z,12.68
2023-01-21T17:36:38.538Z,9.32
2023-01-21T17:39:46.768Z,9.68
2023-01-21T17:42:49.467Z,11.65
2023-01-21T17:45:55.110Z,10.40
2023-01-21T17:49:05.077Z,14.60
2023-01-21T17:52:19.599Z,11.68
2023-01-21T17:55:40.175Z,9.55
2023-01-21T17:58:45.859Z,7.33
2023-01-21T18:01:48.446Z,7.30
2023-01-21T18:04:50.890Z,8.52
2023-01-21T18:07:53.555Z,8.00
2023-01-21T18:10:56.396Z,9.52
2023-01-21T18:13:59.287Z,6.82
2023-01-21T18:17:02.130Z,6.85
2023-01-21T18:20:11.978Z,6.67
2023-01-21T18:23:15.235Z,7.05
2023-01-21T18:26:28.240Z,6.78
2023-01-21T18:29:30.973Z,8.37
2023-01-21T18:32:33.646Z,6.85
2023-01-21T18:35:36.400Z,8.80
2023-01-21T18:38:39.024Z,9.02
2023-01-21T18:41:41.803Z,8.48
2023-01-21T18:44:44.739Z,6.13
2023-01-21T18:47:48.667Z,7.43
2023-01-21T18:50:51.013Z,8.60
2023-01-21T18:53:53.776Z,7.60
2023-01-21T18:56:56.273Z,7.20
2023-01-21T19:00:00.144Z,7.67
2023-01-21T19:03:03.083Z,6.95
2023-01-21T19:06:14.464Z,10.18
2023-01-21T19:09:22.487Z,12.65
2023-01-21T19:12:26.507Z,9.02
2023-01-21T19:15:29.426Z,8.60
2023-01-21T19:18:32.054Z,7.72
2023-01-21T19:21:34.575Z,8.20
2023-01-21T19:24:38.625Z,5.75
2023-01-21T19:27:44.210Z,6.40
2023-01-21T19:30:49.417Z,7.30
2023-01-21T19:33:51.905Z,7.32
2023-01-21T19:36:54.412Z,8.95
2023-01-21T19:39:57.131Z,7.13
2023-01-21T19:43:00.745Z,10.50
2023-01-21T19:46:03.307Z,6.75
2023-01-21T19:49:13.981Z,7.38
2023-01-21T19:52:16.656Z,7.60
2023-01-21T19:55:24.261Z,7.18
2023-01-21T19:58:30.457Z,10.55
2023-01-21T20:01:33.224Z,7.80
2023-01-21T20:04:36.478Z,8.00
2023-01-21T20:07:38.918Z,8.40
2023-01-21T20:10:41.639Z,11.32
2023-01-21T20:13:45.311Z,8.55
2023-01-21T20:16:53.180Z,9.00
2023-01-21T20:19:55.703Z,9.32
2023-01-21T20:23:01.906Z,9.83
2023-01-21T20:26:13.039Z,9.35
2023-01-21T20:29:16.669Z,10.18
2023-01-21T20:32:20.793Z,10.50
2023-01-21T20:35:27.009Z,8.52
2023-01-21T20:38:32.632Z,8.15
2023-01-21T20:41:35.439Z,7.60
2023-01-21T20:44:37.812Z,6.45
2023-01-21T20:47:49.665Z,7.50
2023-01-21T20:50:53.407Z,5.30
2023-01-21T20:53:56.073Z,6.80
2023-01-21T20:56:58.645Z,6.72
2023-01-21T21:00:01.164Z,6.35
2023-01-21T21:03:03.753Z,6.33
2023-01-21T21:06:17.631Z,6.82
2023-01-21T21:09:22.108Z,6.65
2023-01-21T21:12:25.087Z,6.28
2023-01-21T21:15:32.040Z,6.35
2023-01-21T21:18:35.490Z,7.50
2023-01-21T21:21:38.078Z,6.47
2023-01-21T21:24:40.736Z,6.33
2023-01-21T21:27:43.995Z,7.72
2023-01-21T21:30:46.544Z,8.07
2023-01-21T21:33:49.346Z,6.67
2023-01-21T21:36:51.941Z,6.45
2023-01-21T21:39:54.355Z,5.55
2023-01-21T21:43:16.237Z,8.75
2023-01-21T21:46:37.009Z,7.05
2023-01-21T21:49:39.642Z,5.75
2023-01-21T21:52:42.055Z,8.85
2023-01-21T21:55:44.423Z,5.73
2023-01-21T21:58:47.624Z,6.93
2023-01-21T22:01:50.037Z,7.00
2023-01-21T22:04:54.953Z,7.77
2023-01-21T22:07:57.382Z,6.70
2023-01-21T22:11:05.602Z,7.15
2023-01-21T22:14:08.543Z,6.40
2023-01-21T22:17:10.900Z,5.85
2023-01-21T22:20:13.647Z,6.20
2023-01-21T22:23:16.112Z,6.82
2023-01-21T22:26:24.256Z,5.03
2023-01-21T22:29:26.812Z,6.00
2023-01-21T22:32:29.184Z,5.35
2023-01-21T22:35:31.500Z,7.57
2023-01-21T22:38:35.389Z,5.45
2023-01-21T22:41:37.897Z,8.45
2023-01-21T22:44:40.279Z,6.55
2023-01-21T22:47:42.656Z,7.38
2023-01-21T22:50:45.202Z,5.22
2023-01-21T22:53:47.794Z,6.30
2023-01-21T22:56:52.478Z,6.33
2023-01-21T22:59:55.460Z,6.63
2023-01-21T23:02:58.634Z,5.97
2023-01-21T23:06:06.304Z,6.27
2023-01-21T23:09:11.234Z,6.35
2023-01-21T23:12:18.775Z,6.57
2023-01-21T23:15:22.665Z,6.07
2023-01-21T23:18:27.348Z,5.38
2023-01-21T23:21:29.728Z,7.50
2023-01-21T23:24:32.128Z,5.47
2023-01-21T23:27:34.610Z,6.73
2023-01-21T23:30:37.449Z,6.32
2023-01-21T23:33:41.544Z,6.90
2023-01-21T23:36:43.979Z,4.97
2023-01-21T23:39:46.462Z,7.25
2023-01-21T23:42:50.169Z,4.82
2023-01-21T23:45:53.280Z,5.95
2023-01-21T23:48:55.713Z,6.32
2023-01-21T23:51:58.260Z,6.82
2023-01-21T23:55:00.686Z,5.88
2023-01-21T23:58:03.028Z,5.53
